createdAt,value
2023-01-18T00:01:15.008Z,97907.00
2023-01-18T00:03:43.033Z,97908.00
2023-01-18T00:06:11.705Z,97908.00
2023-01-18T00:08:40.378Z,97901.00
2023-01-18T00:11:15.478Z,97900.00
2023-01-18T00:13:43.507Z,97906.00
2023-01-18T00:16:19.537Z,97892.00
2023-01-18T00:18:55.868Z,97889.00
2023-01-18T00:21:24.473Z,97888.00
2023-01-18T00:23:52.444Z,97885.00
2023-01-18T00:26:20.496Z,97890.00
2023-01-18T00:28:48.313Z,97876.00
2023-01-18T00:31:18.566Z,97875.00
2023-01-18T00:33:49.515Z,97869.00
2023-01-18T00:36:18.214Z,97874.00
2023-01-18T00:38:51.904Z,97870.00
2023-01-18T00:41:20.822Z,97869.00
2023-01-18T00:43:49.304Z,97873.00
2023-01-18T00:46:19.475Z,97876.00
2023-01-18T00:48:48.346Z,97872.00
2023-01-18T00:51:21.179Z,97882.00
2023-01-18T00:53:49.433Z,97884.00
2023-01-18T00:56:19.806Z,97879.00
2023-01-18T00:58:47.728Z,97886.00
2023-01-18T01:01:15.974Z,97869.00
2023-01-18T01:04:02.476Z,97876.00
2023-01-18T01:06:46.230Z,97873.00
2023-01-18T01:09:18.757Z,97870.00
2023-01-18T01:12:05.855Z,97881.00
2023-01-18T01:14:54.503Z,97874.00
2023-01-18T01:17:40.767Z,97884.00
2023-01-18T01:20:28.651Z,97897.00
2023-01-18T01:23:14.874Z,97907.00
2023-01-18T01:26:01.512Z,97911.00
2023-01-18T01:28:29.351Z,97905.00
2023-01-18T01:31:01.000Z,97903.00
2023-01-18T01:33:30.405Z,97906.00
2023-01-18T01:36:00.357Z,97903.00
2023-01-18T01:38:29.853Z,97893.00
2023-01-18T01:40:59.016Z,97893.00
2023-01-18T01:43:45.624Z,97903.00
2023-01-18T01:46:19.593Z,97904.00
2023-01-18T01:48:52.771Z,97903.00
2023-01-18T01:51:20.821Z,97908.00
2023-01-18T01:53:49.454Z,97911.00
2023-01-18T01:56:19.384Z,97923.00
2023-01-18T01:58:50.349Z,97930.00
2023-01-18T02:01:18.272Z,97933.00
2023-01-18T02:03:46.049Z,97924.00
2023-01-18T02:06:31.541Z,97928.00
2023-01-18T02:09:08.054Z,97936.00
2023-01-18T02:11:36.015Z,97941.00
2023-01-18T02:14:10.527Z,97944.00
2023-01-18T02:17:00.803Z,97940.00
2023-01-18T02:20:25.400Z,97941.00
2023-01-18T02:23:17.623Z,97950.00
2023-01-18T02:26:04.001Z,97958.00
2023-01-18T02:28:35.864Z,97954.00
2023-01-18T02:31:14.256Z,97958.00
2023-01-18T02:33:46.970Z,97966.00
2023-01-18T02:36:38.145Z,97969.00
2023-01-18T02:39:42.197Z,97961.00
2023-01-18T02:42:41.014Z,97969.00
2023-01-18T02:45:35.907Z,97973.00
2023-01-18T02:48:04.332Z,97976.00
2023-01-18T02:50:32.186Z,97975.00
2023-01-18T02:53:00.041Z,97978.00
2023-01-18T02:55:42.492Z,97970.00
2023-01-18T02:58:34.416Z,97975.00
2023-01-18T03:01:38.291Z,97972.00
2023-01-18T03:04:17.016Z,97979.00
2023-01-18T03:06:51.872Z,97979.00
2023-01-18T03:09:21.619Z,97977.00
2023-01-18T03:11:57.815Z,97970.00
2023-01-18T03:14:42.506Z,97972.00
2023-01-18T03:17:25.533Z,97969.00
2023-01-18T03:20:09.222Z,97963.00
2023-01-18T03:23:24.848Z,97970.00
2023-01-18T03:25:56.377Z,97976.00
2023-01-18T03:28:47.401Z,97983.00
2023-01-18T03:31:38.795Z,97978.00
2023-01-18T03:34:26.662Z,97976.00
2023-01-18T03:36:55.859Z,97979.00
2023-01-18T03:39:28.560Z,97986.00
2023-01-18T03:42:00.113Z,97981.00
2023-01-18T03:45:01.699Z,97986.00
2023-01-18T03:47:29.992Z,97985.00
2023-01-18T03:49:58.421Z,97986.00
2023-01-18T03:52:47.569Z,97983.00
2023-01-18T03:55:20.692Z,97981.00
2023-01-18T03:57:55.513Z,97991.00
2023-01-18T04:00:23.700Z,97993.00
2023-01-18T04:02:51.696Z,97989.00
2023-01-18T04:05:19.810Z,97986.00
2023-01-18T04:07:47.788Z,97993.00
2023-01-18T04:10:15.679Z,98001.00
2023-01-18T04:12:43.481Z,98002.00
2023-01-18T04:15:11.773Z,98000.00
2023-01-18T04:17:40.042Z,98002.00
2023-01-18T04:20:08.648Z,98005.00
2023-01-18T04:22:36.503Z,98006.00
2023-01-18T04:25:04.866Z,98008.00
2023-01-18T04:27:32.731Z,98007.00
2023-01-18T04:30:00.780Z,98014.00
2023-01-18T04:32:32.567Z,98018.00
2023-01-18T04:35:00.679Z,98017.00
2023-01-18T04:37:34.175Z,98012.00
2023-01-18T04:40:02.173Z,98016.00
2023-01-18T04:42:30.672Z,98024.00
2023-01-18T04:45:00.187Z,98016.00
2023-01-18T04:47:29.263Z,98014.00
2023-01-18T04:49:59.917Z,98014.00
2023-01-18T04:52:27.802Z,98017.00
2023-01-18T04:54:55.781Z,98032.00
2023-01-18T04:57:23.555Z,98022.00
2023-01-18T04:59:51.283Z,98025.00
2023-01-18T05:02:19.273Z,98032.00
2023-01-18T05:04:47.950Z,98041.00
2023-01-18T05:07:15.800Z,98032.00
2023-01-18T05:09:43.576Z,98039.00
2023-01-18T05:12:11.343Z,98045.00
2023-01-18T05:14:39.112Z,98039.00
2023-01-18T05:17:07.576Z,98047.00
2023-01-18T05:19:35.528Z,98044.00
2023-01-18T05:22:03.283Z,98060.00
2023-01-18T05:24:31.082Z,98061.00
2023-01-18T05:26:59.070Z,98058.00
2023-01-18T05:29:26.917Z,98056.00
2023-01-18T05:31:54.790Z,98060.00
2023-01-18T05:34:22.679Z,98059.00
2023-01-18T05:36:53.181Z,98077.00
2023-01-18T05:39:20.971Z,98067.00
2023-01-18T05:41:48.719Z,98070.00
2023-01-18T05:44:16.745Z,98070.00
2023-01-18T05:46:44.686Z,98078.00
2023-01-18T05:49:12.413Z,98079.00
2023-01-18T05:51:40.362Z,98082.00
2023-01-18T05:54:08.252Z,98093.00
2023-01-18T05:56:36.170Z,98101.00
2023-01-18T05:59:04.179Z,98089.00
2023-01-18T06:01:32.058Z,98098.00
2023-01-18T06:03:59.868Z,98100.00
2023-01-18T06:06:27.818Z,98109.00
2023-01-18T06:08:55.858Z,98109.00
2023-01-18T06:11:23.706Z,98110.00
2023-01-18T06:13:52.529Z,98111.00
2023-01-18T06:16:20.455Z,98114.00
2023-01-18T06:18:48.342Z,98110.00
2023-01-18T06:21:18.106Z,98110.00
2023-01-18T06:23:45.904Z,98123.00
2023-01-18T06:26:13.940Z,98124.00
2023-01-18T06:28:41.734Z,98117.00
2023-01-18T06:31:10.705Z,98117.00
2023-01-18T06:33:38.493Z,98125.00
2023-01-18T06:36:06.616Z,98122.00
2023-01-18T06:38:34.846Z,98128.00
2023-01-18T06:41:02.738Z,98130.00
2023-01-18T06:43:30.745Z,98120.00
2023-01-18T06:45:58.887Z,98134.00
2023-01-18T06:48:27.573Z,98132.00
2023-01-18T06:50:59.512Z,98146.00
2023-01-18T06:53:27.310Z,98142.00
2023-01-18T06:55:57.003Z,98137.00
2023-01-18T06:58:26.346Z,98149.00
2023-01-18T07:00:54.762Z,98147.00
2023-01-18T07:03:23.026Z,98154.00
2023-01-18T07:05:50.658Z,98157.00
2023-01-18T07:08:21.161Z,98167.00
2023-01-18T07:10:49.037Z,98164.00
2023-01-18T07:13:17.947Z,98163.00
2023-01-18T07:15:45.732Z,98165.00
2023-01-18T07:18:13.484Z,98175.00
2023-01-18T07:20:41.251Z,98174.00
2023-01-18T07:23:08.916Z,98162.00
2023-01-18T07:25:36.674Z,98176.00
2023-01-18T07:28:05.195Z,98174.00
2023-01-18T07:30:32.848Z,98175.00
2023-01-18T07:33:00.943Z,98177.00
2023-01-18T07:35:29.114Z,98188.00
2023-01-18T07:37:56.867Z,98185.00
2023-01-18T07:40:24.599Z,98195.00
2023-01-18T07:42:58.968Z,98200.00
2023-01-18T07:45:26.786Z,98211.00
2023-01-18T07:47:54.489Z,98214.00
2023-01-18T07:50:22.683Z,98220.00
2023-01-18T07:52:53.281Z,98210.00
2023-01-18T07:55:21.942Z,98222.00
2023-01-18T07:57:49.659Z,98222.00
2023-01-18T08:00:17.490Z,98230.00
2023-01-18T08:02:45.116Z,98234.00
2023-01-18T08:05:12.816Z,98236.00
2023-01-18T08:07:40.509Z,98233.00
2023-01-18T08:10:08.484Z,98242.00
2023-01-18T08:12:36.166Z,98241.00
2023-01-18T08:15:04.652Z,98240.00
2023-01-18T08:17:32.413Z,98238.00
2023-01-18T08:20:00.092Z,98253.00
2023-01-18T08:22:28.013Z,98245.00
2023-01-18T08:24:55.732Z,98251.00
2023-01-18T08:27:27.087Z,98256.00
2023-01-18T08:29:55.036Z,98259.00
2023-01-18T08:32:22.981Z,98266.00
2023-01-18T08:34:50.809Z,98279.00
2023-01-18T08:37:18.480Z,98270.00
2023-01-18T08:39:46.065Z,98278.00
2023-01-18T08:42:13.673Z,98274.00
2023-01-18T08:44:41.490Z,98281.00
2023-01-18T08:47:09.407Z,98288.00
2023-01-18T08:49:36.960Z,98267.00
2023-01-18T08:52:04.566Z,98274.00
2023-01-18T08:54:32.449Z,98274.00
2023-01-18T08:57:01.607Z,98293.00
2023-01-18T08:59:29.341Z,98289.00
2023-01-18T09:01:57.389Z,98293.00
2023-01-18T09:04:25.109Z,98294.00
2023-01-18T09:06:52.688Z,98291.00
2023-01-18T09:09:20.429Z,98300.00
2023-01-18T09:11:50.743Z,98286.00
2023-01-18T09:14:18.547Z,98297.00
2023-01-18T09:16:47.067Z,98302.00
2023-01-18T09:19:14.696Z,98302.00
2023-01-18T09:21:42.379Z,98302.00
2023-01-18T09:24:10.183Z,98299.00
2023-01-18T09:26:37.819Z,98294.00
2023-01-18T09:29:05.416Z,98295.00
2023-01-18T09:31:33.153Z,98299.00
2023-01-18T09:34:17.991Z,98307.00
2023-01-18T09:36:47.325Z,98315.00
2023-01-18T09:39:15.056Z,98313.00
2023-01-18T09:41:49.840Z,98315.00
2023-01-18T09:44:32.623Z,98319.00
2023-01-18T09:47:05.436Z,98332.00
2023-01-18T09:49:36.405Z,98322.00
2023-01-18T09:52:12.339Z,98334.00
2023-01-18T09:54:52.504Z,98337.00
2023-01-18T09:57:38.770Z,98344.00
2023-01-18T10:00:15.523Z,98338.00
2023-01-18T10:02:43.349Z,98337.00
2023-01-18T10:05:15.207Z,98346.00
2023-01-18T10:08:11.717Z,98347.00
2023-01-18T10:10:40.797Z,98342.00
2023-01-18T10:13:09.807Z,98347.00
2023-01-18T10:15:37.403Z,98352.00
2023-01-18T10:18:05.347Z,98348.00
2023-01-18T10:20:35.753Z,98340.00
2023-01-18T10:23:09.468Z,98345.00
2023-01-18T10:25:38.749Z,98348.00
2023-01-18T10:28:13.074Z,98343.00
2023-01-18T10:30:40.840Z,98340.00
2023-01-18T10:33:19.126Z,98345.00
2023-01-18T10:35:48.279Z,98349.00
2023-01-18T10:38:22.670Z,98337.00
2023-01-18T10:40:57.671Z,98347.00
2023-01-18T10:43:26.099Z,98339.00
2023-01-18T10:45:54.057Z,98345.00
2023-01-18T10:48:26.401Z,98349.00
2023-01-18T10:50:55.444Z,98361.00
2023-01-18T10:53:27.581Z,98359.00
2023-01-18T10:55:55.239Z,98361.00
2023-01-18T10:58:30.944Z,98365.00
2023-01-18T11:00:58.861Z,98362.00
2023-01-18T11:03:26.798Z,98360.00
2023-01-18T11:05:56.336Z,98365.00
2023-01-18T11:08:25.550Z,98368.00
2023-01-18T11:11:00.552Z,98373.00
2023-01-18T11:13:37.393Z,98370.00
2023-01-18T11:16:06.546Z,98372.00
2023-01-18T11:18:34.129Z,98385.00
2023-01-18T11:21:02.117Z,98376.00
2023-01-18T11:23:32.313Z,98388.00
2023-01-18T11:26:08.172Z,98380.00
2023-01-18T11:28:45.578Z,98386.00
2023-01-18T11:31:14.210Z,98388.00
2023-01-18T11:33:54.879Z,98383.00
2023-01-18T11:36:42.650Z,98375.00
2023-01-18T11:39:30.348Z,98383.00
2023-01-18T11:42:10.410Z,98388.00
2023-01-18T11:45:04.721Z,98382.00
2023-01-18T11:47:37.886Z,98393.00
2023-01-18T11:50:21.294Z,98397.00
2023-01-18T11:52:53.996Z,98390.00
2023-01-18T11:55:24.393Z,98400.00
2023-01-18T11:57:52.502Z,98405.00
2023-01-18T12:00:28.230Z,98395.00
2023-01-18T12:02:56.675Z,98405.00
2023-01-18T12:05:34.240Z,98407.00
2023-01-18T12:08:20.769Z,98405.00
2023-01-18T12:10:54.626Z,98417.00
2023-01-18T12:13:33.411Z,98418.00
2023-01-18T12:16:20.598Z,98422.00
2023-01-18T12:18:59.106Z,98423.00
2023-01-18T12:21:46.980Z,98418.00
2023-01-18T12:24:14.657Z,98431.00
2023-01-18T12:26:50.912Z,98419.00
2023-01-18T12:29:24.338Z,98430.00
2023-01-18T12:31:51.996Z,98436.00
2023-01-18T12:34:23.770Z,98436.00
2023-01-18T12:36:59.191Z,98431.00
2023-01-18T12:39:52.568Z,98442.00
2023-01-18T12:42:35.514Z,98434.00
2023-01-18T12:45:15.219Z,98443.00
2023-01-18T12:47:48.069Z,98447.00
2023-01-18T12:50:23.428Z,98446.00
2023-01-18T12:52:52.663Z,98450.00
2023-01-18T12:55:21.640Z,98446.00
2023-01-18T12:57:50.696Z,98459.00
2023-01-18T13:00:24.758Z,98458.00
2023-01-18T13:02:53.569Z,98463.00
2023-01-18T13:05:35.533Z,98465.00
2023-01-18T13:08:09.312Z,98462.00
2023-01-18T13:10:37.688Z,98463.00
2023-01-18T13:13:06.211Z,98469.00
2023-01-18T13:15:44.663Z,98472.00
2023-01-18T13:18:16.070Z,98469.00
2023-01-18T13:20:53.761Z,98472.00
2023-01-18T13:23:32.883Z,98475.00
2023-01-18T13:26:20.765Z,98482.00
2023-01-18T13:28:48.722Z,98481.00
2023-01-18T13:31:16.738Z,98489.00
2023-01-18T13:33:47.399Z,98495.00
2023-01-18T13:36:17.467Z,98495.00
2023-01-18T13:38:49.455Z,98504.00
2023-01-18T13:41:18.528Z,98509.00
2023-01-18T13:43:46.406Z,98511.00
2023-01-18T13:46:19.955Z,98505.00
2023-01-18T13:48:55.436Z,98513.00
2023-01-18T13:51:41.598Z,98517.00
2023-01-18T13:54:16.276Z,98519.00
2023-01-18T13:57:02.899Z,98524.00
2023-01-18T13:59:37.530Z,98519.00
2023-01-18T14:02:28.559Z,98527.00
2023-01-18T14:04:59.986Z,98535.00
2023-01-18T14:07:27.695Z,98543.00
2023-01-18T14:09:56.080Z,98543.00
2023-01-18T14:12:42.615Z,98556.00
2023-01-18T14:15:21.085Z,98555.00
2023-01-18T14:17:58.185Z,98550.00
2023-01-18T14:20:26.728Z,98559.00
2023-01-18T14:23:17.634Z,98553.00
2023-01-18T14:25:45.331Z,98560.00
2023-01-18T14:28:35.512Z,98571.00
2023-01-18T14:31:04.546Z,98570.00
2023-01-18T14:33:34.001Z,98576.00
2023-01-18T14:36:02.280Z,98578.00
2023-01-18T14:38:30.541Z,98576.00
2023-01-18T14:40:58.864Z,98573.00
2023-01-18T14:43:30.872Z,98583.00
2023-01-18T14:46:05.899Z,98579.00
2023-01-18T14:48:34.676Z,98577.00
2023-01-18T14:51:07.112Z,98580.00
2023-01-18T14:53:36.551Z,98576.00
2023-01-18T14:56:30.542Z,98595.00
2023-01-18T14:58:59.286Z,98594.00
2023-01-18T15:01:28.944Z,98594.00
2023-01-18T15:03:57.698Z,98603.00
2023-01-18T15:06:31.600Z,98606.00
2023-01-18T15:08:59.576Z,98613.00
2023-01-18T15:11:27.259Z,98611.00
2023-01-18T15:13:54.871Z,98610.00
2023-01-18T15:16:24.464Z,98610.00
2023-01-18T15:18:52.746Z,98613.00
2023-01-18T15:21:30.376Z,98616.00
2023-01-18T15:24:08.903Z,98618.00
2023-01-18T15:26:47.199Z,98628.00
2023-01-18T15:29:15.793Z,98631.00
2023-01-18T15:31:54.598Z,98631.00
2023-01-18T15:34:27.117Z,98634.00
2023-01-18T15:36:54.960Z,98648.00
2023-01-18T15:39:22.528Z,98645.00
2023-01-18T15:41:50.124Z,98647.00
2023-01-18T15:44:37.829Z,98645.00
2023-01-18T15:47:17.073Z,98638.00
2023-01-18T15:49:48.673Z,98649.00
2023-01-18T15:52:16.446Z,98651.00
2023-01-18T15:54:44.271Z,98655.00
2023-01-18T15:57:13.193Z,98659.00
2023-01-18T15:59:41.546Z,98659.00
2023-01-18T16:02:09.296Z,98656.00
2023-01-18T16:04:37.629Z,98668.00
2023-01-18T16:07:42.388Z,98669.00
2023-01-18T16:10:09.947Z,98675.00
2023-01-18T16:12:37.740Z,98670.00
2023-01-18T16:15:05.656Z,98669.00
2023-01-18T16:17:33.469Z,98678.00
2023-01-18T16:20:01.352Z,98686.00
2023-01-18T16:22:29.899Z,98686.00
2023-01-18T16:24:57.661Z,98696.00
2023-01-18T16:27:25.825Z,98694.00
2023-01-18T16:30:00.772Z,98706.00
2023-01-18T16:32:30.018Z,98699.00
2023-01-18T16:35:10.950Z,98697.00
2023-01-18T16:37:38.789Z,98702.00
2023-01-18T16:40:06.811Z,98706.00
2023-01-18T16:42:53.183Z,98705.00
2023-01-18T16:45:21.021Z,98710.00
2023-01-18T16:47:49.281Z,98706.00
2023-01-18T16:50:17.673Z,98709.00
2023-01-18T16:52:45.567Z,98717.00
2023-01-18T16:55:14.015Z,98712.00
2023-01-18T16:57:42.201Z,98719.00
2023-01-18T17:00:16.181Z,98725.00
2023-01-18T17:02:44.055Z,98728.00
2023-01-18T17:05:12.099Z,98726.00
2023-01-18T17:07:40.162Z,98729.00
2023-01-18T17:10:26.842Z,98736.00
2023-01-18T17:12:55.401Z,98741.00
2023-01-18T17:15:23.127Z,98749.00
2023-01-18T17:17:50.765Z,98746.00
2023-01-18T17:20:19.533Z,98754.00
2023-01-18T17:22:47.372Z,98745.00
2023-01-18T17:25:15.559Z,98758.00
2023-01-18T17:27:43.645Z,98758.00
2023-01-18T17:30:12.375Z,98755.00
2023-01-18T17:32:40.183Z,98755.00
2023-01-18T17:35:07.854Z,98762.00
2023-01-18T17:37:35.734Z,98754.00
2023-01-18T17:40:16.328Z,98752.00
2023-01-18T17:42:46.296Z,98765.00
2023-01-18T17:45:16.881Z,98760.00
2023-01-18T17:47:44.894Z,98774.00
2023-01-18T17:50:14.154Z,98773.00
2023-01-18T17:52:41.979Z,98771.00
2023-01-18T17:55:11.635Z,98774.00
2023-01-18T17:57:39.939Z,98774.00
2023-01-18T18:00:08.506Z,98779.00
2023-01-18T18:02:36.846Z,98788.00
2023-01-18T18:05:04.950Z,98779.00
2023-01-18T18:07:32.893Z,98781.00
2023-01-18T18:10:01.711Z,98779.00
2023-01-18T18:12:30.120Z,98780.00
2023-01-18T18:14:58.148Z,98783.00
2023-01-18T18:17:26.474Z,98780.00
2023-01-18T18:19:54.371Z,98797.00
2023-01-18T18:22:22.000Z,98809.00
2023-01-18T18:24:49.972Z,98809.00
2023-01-18T18:27:17.760Z,98808.00
2023-01-18T18:29:45.558Z,98807.00
2023-01-18T18:32:13.446Z,98810.00
2023-01-18T18:34:41.136Z,98796.00
2023-01-18T18:37:08.794Z,98809.00
2023-01-18T18:39:36.559Z,98812.00
2023-01-18T18:42:04.520Z,98815.00
2023-01-18T18:44:32.029Z,98814.00
2023-01-18T18:46:59.902Z,98816.00
2023-01-18T18:49:27.757Z,98814.00
2023-01-18T18:51:55.524Z,98810.00
2023-01-18T18:54:23.426Z,98818.00
2023-01-18T18:56:51.183Z,98829.00
2023-01-18T18:59:18.816Z,98832.00
2023-01-18T19:01:46.538Z,98825.00
2023-01-18T19:04:14.561Z,98830.00
2023-01-18T19:06:42.217Z,98839.00
2023-01-18T19:09:10.029Z,98837.00
2023-01-18T19:11:39.582Z,98836.00
2023-01-18T19:14:14.822Z,98838.00
2023-01-18T19:16:42.849Z,98842.00
2023-01-18T19:19:10.869Z,98842.00
2023-01-18T19:21:42.784Z,98839.00
2023-01-18T19:24:10.600Z,98845.00
2023-01-18T19:26:38.263Z,98846.00
2023-01-18T19:29:07.805Z,98843.00
2023-01-18T19:31:36.315Z,98841.00
2023-01-18T19:34:04.072Z,98854.00
2023-01-18T19:36:32.089Z,98857.00
2023-01-18T19:39:01.346Z,98857.00
2023-01-18T19:41:30.685Z,98858.00
2023-01-18T19:43:58.614Z,98865.00
2023-01-18T19:46:26.365Z,98876.00
2023-01-18T19:48:58.489Z,98869.00
2023-01-18T19:51:26.227Z,98877.00
2023-01-18T19:53:54.646Z,98876.00
2023-01-18T19:56:22.482Z,98882.00
2023-01-18T19:58:50.934Z,98878.00
2023-01-18T20:01:34.725Z,98881.00
2023-01-18T20:04:04.476Z,98882.00
2023-01-18T20:06:32.149Z,98894.00
2023-01-18T20:09:04.042Z,98885.00
2023-01-18T20:11:33.205Z,98890.00
2023-01-18T20:14:00.773Z,98892.00
2023-01-18T20:16:28.483Z,98893.00
2023-01-18T20:18:56.171Z,98894.00
2023-01-18T20:21:23.875Z,98896.00
2023-01-18T20:23:51.384Z,98899.00
2023-01-18T20:26:31.244Z,98903.00
2023-01-18T20:29:06.494Z,98898.00
2023-01-18T20:31:34.691Z,98900.00
2023-01-18T20:34:02.295Z,98897.00
2023-01-18T20:36:30.011Z,98888.00
2023-01-18T20:38:57.650Z,98908.00
2023-01-18T20:41:25.265Z,98899.00
2023-01-18T20:43:53.880Z,98901.00
2023-01-18T20:46:21.736Z,98902.00
2023-01-18T20:48:49.839Z,98906.00
2023-01-18T20:51:20.446Z,98908.00
2023-01-18T20:53:48.495Z,98911.00
2023-01-18T20:56:29.182Z,98909.00
2023-01-18T20:58:58.347Z,98908.00
2023-01-18T21:01:31.796Z,98918.00
2023-01-18T21:04:00.406Z,98906.00
2023-01-18T21:06:28.418Z,98906.00
2023-01-18T21:08:56.499Z,98901.00
2023-01-18T21:11:25.786Z,98911.00
2023-01-18T21:13:57.418Z,98901.00
2023-01-18T21:16:27.701Z,98905.00
2023-01-18T21:18:56.498Z,98910.00
2023-01-18T21:21:24.271Z,98913.00
2023-01-18T21:23:51.976Z,98915.00
2023-01-18T21:26:19.578Z,98920.00
2023-01-18T21:28:47.288Z,98916.00
2023-01-18T21:31:15.100Z,98920.00
2023-01-18T21:33:42.927Z,98909.00
2023-01-18T21:36:14.699Z,98926.00
2023-01-18T21:38:42.491Z,98933.00
2023-01-18T21:41:29.101Z,98926.00
2023-01-18T21:44:15.649Z,98935.00
2023-01-18T21:46:44.652Z,98930.00
2023-01-18T21:49:47.182Z,98937.00
2023-01-18T21:52:38.831Z,98935.00
2023-01-18T21:55:06.608Z,98942.00
2023-01-18T21:57:35.314Z,98933.00
2023-01-18T22:00:04.623Z,98939.00
2023-01-18T22:02:34.905Z,98939.00
2023-01-18T22:05:05.579Z,98947.00
2023-01-18T22:07:34.331Z,98939.00
2023-01-18T22:10:07.050Z,98951.00
2023-01-18T22:12:36.198Z,98954.00
2023-01-18T22:15:04.703Z,98950.00
2023-01-18T22:17:32.411Z,98961.00
2023-01-18T22:20:00.405Z,98958.00
2023-01-18T22:22:28.424Z,98950.00
2023-01-18T22:24:57.339Z,98957.00
2023-01-18T22:27:25.108Z,98959.00
2023-01-18T22:29:52.885Z,98960.00
2023-01-18T22:32:21.818Z,98963.00
2023-01-18T22:34:49.643Z,98968.00
2023-01-18T22:37:17.486Z,98967.00
2023-01-18T22:39:45.172Z,98968.00
2023-01-18T22:42:12.928Z,98968.00
2023-01-18T22:44:40.880Z,98971.00
2023-01-18T22:47:08.511Z,98969.00
2023-01-18T22:49:36.225Z,98976.00
2023-01-18T22:52:05.131Z,98979.00
2023-01-18T22:54:33.088Z,98975.00
2023-01-18T22:57:01.048Z,98981.00
2023-01-18T22:59:28.852Z,98981.00
2023-01-18T23:01:56.875Z,98981.00
2023-01-18T23:04:24.815Z,98984.00
2023-01-18T23:06:54.921Z,98993.00
2023-01-18T23:09:22.768Z,98984.00
2023-01-18T23:11:51.801Z,98981.00
2023-01-18T23:14:38.197Z,98988.00
2023-01-18T23:17:24.547Z,98983.00
2023-01-18T23:19:52.282Z,98980.00
2023-01-18T23:22:19.968Z,98977.00
2023-01-18T23:24:47.763Z,98977.00
2023-01-18T23:27:15.620Z,98977.00
2023-01-18T23:29:43.533Z,98983.00
2023-01-18T23:32:11.205Z,98979.00
2023-01-18T23:34:39.300Z,98984.00
2023-01-18T23:37:07.069Z,98980.00
2023-01-18T23:39:53.681Z,98983.00
2023-01-18T23:42:39.917Z,98979.00
2023-01-18T23:45:27.367Z,98975.00
2023-01-18T23:48:14.758Z,98979.00
2023-01-18T23:51:01.317Z,98981.00
2023-01-18T23:53:47.735Z,98989.00
2023-01-18T23:56:15.409Z,98986.00
2023-01-18T23:58:43.466Z,98984.00
